Time;durP1;ratioP1;P1;durP2;ratioP2;P2;SDS_P1;SDS_P2;PMS_P1;PMS_P2;Temp;Humidity;BMP_temperature;BMP_pressure;BME280_temperature;BME280_humidity;BME280_pressure;Samples;Min_cycle;Max_cycle;Signal;HPM_P1;HPM_P2
2024/04/16 00:02:20;;;;;;;11.18;7.03;;;16.90;64.70;;;;;;5367756;26;110424;-50
2024/04/16 00:04:46;;;;;;;14.10;7.40;;;16.90;64.70;;;;;;5367424;26;110718;-50
2024/04/16 00:07:11;;;;;;;11.48;7.28;;;17.00;64.70;;;;;;5366622;26;111116;-51
2024/04/16 00:09:37;;;;;;;13.07;8.77;;;16.90;64.90;;;;;;5366408;26;112012;-50
2024/04/16 00:12:03;;;;;;;10.80;8.50;;;16.50;66.30;;;;;;5367874;26;110435;-50
2024/04/16 00:14:28;;;;;;;16.88;7.82;;;16.30;67.50;;;;;;5367803;26;110687;-50
2024/04/16 00:16:54;;;;;;;13.80;8.20;;;16.20;67.80;;;;;;5366401;26;111226;-50
2024/04/16 00:19:20;;;;;;;13.80;8.27;;;16.10;68.00;;;;;;5366510;26;110606;-50
2024/04/16 00:21:45;;;;;;;11.30;8.30;;;16.30;67.20;;;;;;5367609;26;110790;-50
2024/04/16 00:24:12;;;;;;;12.38;9.00;;;16.10;67.50;;;;;;5367821;26;111125;-50
2024/04/16 00:26:39;;;;;;;13.80;9.05;;;15.90;68.50;;;;;;5366262;26;112391;-50
2024/04/16 00:29:04;;;;;;;14.60;8.90;;;15.90;68.40;;;;;;5366217;26;111894;-50
2024/04/16 00:31:30;;;;;;;12.88;9.48;;;15.90;67.60;;;;;;5367798;26;111406;-50
2024/04/16 00:33:56;;;;;;;10.93;9.02;;;16.10;67.60;;;;;;5367334;26;111116;-50
2024/04/16 00:36:21;;;;;;;14.55;8.43;;;16.50;66.70;;;;;;5366359;26;111002;-50
2024/04/16 00:38:47;;;;;;;11.63;8.93;;;16.50;66.20;;;;;;5366255;26;110944;-50
2024/04/16 00:41:13;;;;;;;12.13;8.65;;;16.60;66.30;;;;;;5367221;26;110504;-50
2024/04/16 00:43:38;;;;;;;12.43;8.63;;;16.50;66.10;;;;;;5367540;26;110691;-50
2024/04/16 00:46:05;;;;;;;11.50;8.68;;;16.50;65.70;;;;;;5366142;26;111409;-51
2024/04/16 00:48:30;;;;;;;9.98;7.63;;;16.40;64.70;;;;;;5366421;26;111571;-50
2024/04/16 00:50:58;;;;;;;12.20;7.28;;;16.60;64.40;;;;;;5367006;26;110397;-50
2024/04/16 00:53:25;;;;;;;18.00;7.65;;;16.80;63.50;;;;;;5367573;26;110581;-50
2024/04/16 00:55:51;;;;;;;16.08;7.78;;;16.60;64.00;;;;;;5366176;26;111366;-51
2024/04/16 00:58:18;;;;;;;10.10;7.43;;;16.40;65.10;;;;;;5365785;26;111646;-50
2024/04/16 01:00:45;;;;;;;10.93;7.80;;;16.30;65.90;;;;;;5367171;26;110694;-50
2024/04/16 01:03:11;;;;;;;10.00;7.30;;;16.40;66.40;;;;;;5366440;26;110998;-50
2024/04/16 01:05:38;;;;;;;13.15;7.97;;;16.40;66.30;;;;;;5366132;26;111178;-50
2024/04/16 01:08:07;;;;;;;10.20;7.47;;;16.50;66.30;;;;;;5365974;26;111745;-50
2024/04/16 01:10:38;;;;;;;13.35;7.53;;;16.60;66.40;;;;;;5367276;26;110492;-50
2024/04/16 01:13:04;;;;;;;9.88;6.78;;;16.70;64.80;;;;;;5367109;26;110531;-50
2024/04/16 01:15:29;;;;;;;13.98;7.22;;;16.60;65.10;;;;;;5365989;26;112299;-50
2024/04/16 01:17:56;;;;;;;10.70;7.60;;;16.70;65.10;;;;;;5365502;26;111994;-50
2024/04/16 01:20:22;;;;;;;10.80;7.30;;;16.90;64.20;;;;;;5364909;26;110466;-50
2024/04/16 01:22:50;;;;;;;13.40;8.32;;;17.00;64.10;;;;;;5367159;26;110778;-50
2024/04/16 01:25:16;;;;;;;11.32;7.68;;;16.30;66.70;;;;;;5365614;26;111345;-50
2024/04/16 01:27:41;;;;;;;10.63;7.60;;;16.40;66.00;;;;;;5365746;26;111844;-50
2024/04/16 01:30:07;;;;;;;16.60;7.95;;;16.40;66.10;;;;;;5366700;26;110521;-50
2024/04/16 01:32:33;;;;;;;8.90;6.78;;;16.20;67.10;;;;;;5367012;26;110727;-50
2024/04/16 01:34:59;;;;;;;14.82;8.05;;;16.10;67.40;;;;;;5366002;26;111687;-50
2024/04/16 01:37:24;;;;;;;10.57;7.22;;;16.20;66.50;;;;;;5365726;26;110408;-50
2024/04/16 01:39:50;;;;;;;10.07;7.20;;;16.20;67.00;;;;;;5366772;26;110549;-50
2024/04/16 01:42:16;;;;;;;17.50;7.75;;;16.30;67.10;;;;;;5366421;26;110617;-50
2024/04/16 01:44:45;;;;;;;11.77;7.10;;;16.30;65.90;;;;;;5365472;26;112535;-50
2024/04/16 01:47:11;;;;;;;11.77;7.00;;;16.60;64.90;;;;;;5365668;26;110549;-51
2024/04/16 01:49:37;;;;;;;9.65;7.05;;;16.20;66.40;;;;;;5366538;26;110449;-50
2024/04/16 01:52:03;;;;;;;13.00;7.40;;;15.90;67.20;;;;;;5367172;26;110756;-50
2024/04/16 01:54:28;;;;;;;13.68;8.75;;;16.20;66.90;;;;;;5365224;26;112355;-50
2024/04/16 01:56:54;;;;;;;11.20;7.28;;;16.40;65.80;;;;;;5365517;26;110404;-51
2024/04/16 01:59:20;;;;;;;12.25;7.00;;;16.50;64.80;;;;;;5366455;26;110534;-50
2024/04/16 02:01:46;;;;;;;8.30;7.40;;;16.50;65.30;;;;;;5366835;26;110627;-50
2024/04/16 02:04:11;;;;;;;8.98;6.82;;;16.40;65.40;;;;;;5365601;26;112381;-50
2024/04/16 02:06:37;;;;;;;12.57;7.30;;;16.40;65.20;;;;;;5365073;26;111489;-51
2024/04/16 02:09:02;;;;;;;10.90;7.47;;;16.40;65.20;;;;;;5366621;26;110594;-50
2024/04/16 02:11:28;;;;;;;11.00;7.20;;;16.00;66.40;;;;;;5366524;26;110638;-50
2024/04/16 02:13:54;;;;;;;14.98;8.15;;;15.70;67.40;;;;;;5368349;26;110997;-50
2024/04/16 02:16:20;;;;;;;9.88;7.97;;;15.80;67.90;;;;;;5377231;26;111450;-50
2024/04/16 02:18:45;;;;;;;12.10;8.38;;;15.60;69.20;;;;;;5382161;26;111234;-50
2024/04/16 02:21:11;;;;;;;10.38;8.90;;;15.70;68.60;;;;;;5381874;26;110791;-51
2024/04/16 02:23:37;;;;;;;13.18;9.15;;;15.70;68.40;;;;;;5372119;26;112384;-50
2024/04/16 02:26:02;;;;;;;13.52;8.20;;;15.60;68.40;;;;;;5382832;26;110387;-50
2024/04/16 02:28:28;;;;;;;9.82;8.32;;;15.80;67.70;;;;;;5368462;26;110635;-50
2024/04/16 02:30:54;;;;;;;13.35;8.40;;;16.00;66.60;;;;;;5366180;26;111191;-50
2024/04/16 02:33:20;;;;;;;13.43;7.75;;;16.20;66.00;;;;;;5364874;26;112363;-50
2024/04/16 02:35:46;;;;;;;10.80;7.78;;;16.00;66.40;;;;;;5365170;26;110608;-50
2024/04/16 02:38:13;;;;;;;12.90;7.53;;;16.00;66.60;;;;;;5366121;26;110468;-50
2024/04/16 02:40:39;;;;;;;11.43;7.05;;;16.20;65.90;;;;;;5365839;26;110605;-50
2024/04/16 02:43:05;;;;;;;11.25;7.15;;;16.10;66.50;;;;;;5365048;26;111225;-50
2024/04/16 02:45:31;;;;;;;10.43;7.13;;;16.30;65.80;;;;;;5365151;26;111724;-50
2024/04/16 02:47:56;;;;;;;11.38;6.95;;;16.40;65.70;;;;;;5366151;26;111002;-50
2024/04/16 02:50:22;;;;;;;16.13;7.35;;;16.40;65.70;;;;;;5366060;26;110888;-50
2024/04/16 02:52:48;;;;;;;14.05;7.45;;;16.30;65.80;;;;;;5364842;26;112186;-50
2024/04/16 02:55:17;;;;;;;8.90;7.28;;;16.40;66.10;;;;;;5362676;26;113862;-50
2024/04/16 02:57:43;;;;;;;10.38;7.38;;;16.40;65.60;;;;;;5365597;26;110499;-50
2024/04/16 03:00:09;;;;;;;17.65;7.65;;;16.20;65.60;;;;;;5365853;26;110759;-50
2024/04/16 03:02:35;;;;;;;14.43;7.43;;;15.80;67.40;;;;;;5364376;26;111120;-50
2024/04/16 03:05:01;;;;;;;11.02;7.22;;;15.60;68.90;;;;;;5364382;26;111500;-50
2024/04/16 03:07:26;;;;;;;10.57;7.40;;;15.70;67.60;;;;;;5340835;26;110523;-51
2024/04/16 03:09:52;;;;;;;9.63;7.75;;;15.90;67.20;;;;;;5365663;26;110548;-50
2024/04/16 03:12:17;;;;;;;11.65;7.57;;;16.00;65.70;;;;;;5364230;26;112422;-50
2024/04/16 03:14:43;;;;;;;11.63;8.13;;;16.10;65.70;;;;;;5364523;26;110968;-50
2024/04/16 03:17:09;;;;;;;12.05;7.80;;;16.30;64.50;;;;;;5365127;26;110490;-50
2024/04/16 03:19:34;;;;;;;10.05;7.95;;;16.00;66.50;;;;;;5365169;26;110728;-51
2024/04/16 03:22:00;;;;;;;13.00;8.23;;;16.00;66.50;;;;;;5364188;26;111173;-50
2024/04/16 03:24:25;;;;;;;15.27;8.07;;;15.70;68.00;;;;;;5364163;26;110610;-50
2024/04/16 03:26:51;;;;;;;10.57;8.57;;;15.80;68.00;;;;;;5366255;26;110564;-50
2024/04/16 03:29:17;;;;;;;15.50;8.32;;;15.50;69.00;;;;;;5367771;26;110665;-50
2024/04/16 03:31:43;;;;;;;13.23;7.95;;;15.60;68.00;;;;;;5367151;26;111097;-50
2024/04/16 03:34:08;;;;;;;12.35;8.30;;;15.90;67.20;;;;;;5365413;26;110327;-51
2024/04/16 03:36:34;;;;;;;12.77;7.35;;;16.00;65.70;;;;;;5366683;26;110696;-51
2024/04/16 03:39:00;;;;;;;13.18;7.72;;;16.00;65.60;;;;;;5366849;26;110642;-50
2024/04/16 03:41:25;;;;;;;13.93;7.80;;;16.20;66.00;;;;;;5365398;26;112466;-50
2024/04/16 03:43:51;;;;;;;12.27;8.10;;;16.30;65.70;;;;;;5365353;26;111632;-51
2024/04/16 03:46:17;;;;;;;10.38;8.40;;;16.20;65.60;;;;;;5366282;26;110483;-50
2024/04/16 03:48:42;;;;;;;17.33;12.02;;;16.10;66.50;;;;;;5366730;26;110567;-51
2024/04/16 03:51:08;;;;;;;15.63;8.80;;;16.00;67.10;;;;;;5364445;26;112340;-51
2024/04/16 03:53:34;;;;;;;11.25;8.57;;;15.80;67.80;;;;;;5365861;26;111613;-51
2024/04/16 03:56:00;;;;;;;11.50;8.25;;;15.90;67.50;;;;;;5364716;26;110418;-50
2024/04/16 03:58:28;;;;;;;10.45;7.68;;;15.90;67.40;;;;;;5366369;26;110620;-50
2024/04/16 04:01:00;;;;;;;12.45;8.45;;;15.90;67.30;;;;;;5365469;26;111452;-50
2024/04/16 04:03:32;;;;;;;17.15;9.00;;;15.60;68.80;;;;;;5365199;26;111930;-51
2024/04/16 04:05:58;;;;;;;12.65;8.77;;;15.50;69.70;;;;;;5366320;26;110961;-51
2024/04/16 04:08:24;;;;;;;10.90;8.13;;;15.70;69.20;;;;;;5366180;26;110762;-50
2024/04/16 04:10:50;;;;;;;17.58;10.80;;;15.80;69.20;;;;;;5365247;26;112574;-51
2024/04/16 04:13:15;;;;;;;13.55;9.02;;;15.90;68.40;;;;;;5364336;26;110774;-50
2024/04/16 04:15:41;;;;;;;12.75;8.57;;;15.80;68.20;;;;;;5366286;26;111060;-50
2024/04/16 04:18:07;;;;;;;14.25;8.32;;;15.60;69.20;;;;;;5366281;26;110788;-50
2024/04/16 04:20:33;;;;;;;12.88;8.93;;;15.40;70.30;;;;;;5364911;26;111671;-50
2024/04/16 04:22:58;;;;;;;15.25;8.43;;;15.30;71.50;;;;;;5365071;26;111545;-50
2024/04/16 04:25:24;;;;;;;13.88;9.15;;;15.30;72.00;;;;;;5366274;26;113378;-51
2024/04/16 04:27:51;;;;;;;10.48;8.63;;;15.40;70.80;;;;;;5366216;26;110547;-50
2024/04/16 04:30:17;;;;;;;13.13;8.30;;;15.50;70.50;;;;;;5364895;26;111711;-51
2024/04/16 04:32:51;;;;;;;11.80;9.15;;;15.50;68.40;;;;;;5364996;26;111817;-51
2024/04/16 04:35:17;;;;;;;12.32;9.27;;;15.30;70.70;;;;;;5365961;26;110455;-50
2024/04/16 04:37:43;;;;;;;25.73;10.27;;;15.00;72.40;;;;;;5365573;26;114128;-51
2024/04/16 04:40:09;;;;;;;30.92;11.43;;;15.10;72.20;;;;;;5363838;26;112315;-50
2024/04/16 04:42:35;;;;;;;16.08;9.60;;;15.00;72.10;;;;;;5364052;26;110844;-50
2024/04/16 04:45:01;;;;;;;20.75;10.48;;;15.00;72.00;;;;;;5365863;26;110757;-51
2024/04/16 04:47:27;;;;;;;32.42;11.00;;;15.30;71.00;;;;;;5365176;26;110536;-50
2024/04/16 04:49:53;;;;;;;19.52;9.77;;;15.10;69.90;;;;;;5364209;26;112413;-50
2024/04/16 04:52:19;;;;;;;31.15;11.45;;;15.40;69.40;;;;;;5365317;26;112681;-50
2024/04/16 04:54:45;;;;;;;15.88;9.88;;;15.50;68.50;;;;;;5364987;26;110833;-51
2024/04/16 04:57:10;;;;;;;19.35;9.60;;;15.40;68.70;;;;;;5365621;26;110480;-50
2024/04/16 04:59:36;;;;;;;18.13;8.50;;;15.40;68.50;;;;;;5364442;26;111165;-50
2024/04/16 05:02:02;;;;;;;12.25;8.52;;;15.40;68.20;;;;;;5364699;26;113976;-50
2024/04/16 05:04:28;;;;;;;13.13;9.25;;;15.50;68.00;;;;;;5365900;26;110483;-50
2024/04/16 05:06:54;;;;;;;13.73;9.10;;;15.50;67.80;;;;;;5366143;26;111129;-50
2024/04/16 05:09:19;;;;;;;13.82;9.07;;;15.40;68.00;;;;;;5364864;26;111112;-50
2024/04/16 05:11:45;;;;;;;16.65;10.88;;;15.70;67.60;;;;;;5364437;26;112036;-51
2024/04/16 05:14:11;;;;;;;21.45;10.48;;;15.80;68.20;;;;;;5365039;26;111073;-51
2024/04/16 05:16:36;;;;;;;13.75;9.88;;;15.90;68.20;;;;;;5363214;26;110747;-50
2024/04/16 05:19:03;;;;;;;12.77;9.55;;;15.80;68.40;;;;;;5364379;26;111044;-51
2024/04/16 05:21:29;;;;;;;13.60;9.43;;;15.90;68.10;;;;;;5364468;26;110903;-50
2024/04/16 05:23:56;;;;;;;17.73;10.38;;;15.90;67.40;;;;;;5365436;26;111586;-50
2024/04/16 05:26:24;;;;;;;14.07;9.90;;;15.80;68.90;;;;;;5365296;26;110465;-50
2024/04/16 05:28:50;;;;;;;15.25;9.55;;;15.70;68.60;;;;;;5364050;26;112483;-51
2024/04/16 05:31:16;;;;;;;11.93;9.23;;;15.90;67.60;;;;;;5364534;26;112070;-50
2024/04/16 05:33:41;;;;;;;14.23;8.98;;;15.90;67.00;;;;;;5365153;26;110920;-50
2024/04/16 05:36:07;;;;;;;11.45;9.40;;;16.00;67.20;;;;;;5365601;26;110561;-50
2024/04/16 05:38:33;;;;;;;16.25;9.88;;;16.10;66.60;;;;;;5364487;26;112371;-50
2024/04/16 05:40:59;;;;;;;13.95;9.38;;;15.90;67.70;;;;;;5392398;26;111501;-50
2024/04/16 05:43:25;;;;;;;15.15;9.23;;;15.90;68.50;;;;;;5365320;26;110865;-51
2024/04/16 05:45:50;;;;;;;14.18;9.45;;;15.80;68.60;;;;;;5363233;26;110615;-51
2024/04/16 05:48:16;;;;;;;15.20;10.13;;;16.00;68.70;;;;;;5364296;26;111075;-50
2024/04/16 05:50:42;;;;;;;18.10;10.10;;;16.10;68.40;;;;;;5363452;26;110850;-51
2024/04/16 05:53:07;;;;;;;16.70;9.25;;;16.00;68.30;;;;;;5364880;26;110944;-50
2024/04/16 05:55:33;;;;;;;11.60;9.05;;;16.00;68.60;;;;;;5365273;26;110775;-51
2024/04/16 05:58:00;;;;;;;14.98;8.95;;;15.90;68.80;;;;;;5363646;26;111985;-51
2024/04/16 06:00:25;;;;;;;12.43;9.00;;;16.10;68.10;;;;;;5363935;26;112088;-51
2024/04/16 06:02:51;;;;;;;12.45;8.77;;;16.30;67.90;;;;;;5364603;26;110462;-50
2024/04/16 06:05:17;;;;;;;13.50;8.73;;;16.30;67.80;;;;;;5363629;26;110856;-51
2024/04/16 06:07:42;;;;;;;12.13;9.20;;;16.30;67.70;;;;;;5363856;26;112203;-50
2024/04/16 06:10:08;;;;;;;19.10;9.82;;;16.30;67.30;;;;;;5363372;26;110684;-50
2024/04/16 06:12:34;;;;;;;16.48;9.98;;;16.60;67.20;;;;;;5364631;26;110960;-51
2024/04/16 06:14:59;;;;;;;17.77;10.30;;;16.60;67.00;;;;;;5364066;26;110536;-50
2024/04/16 06:17:25;;;;;;;15.73;10.10;;;16.60;66.70;;;;;;5363130;26;111569;-51
2024/04/16 06:19:51;;;;;;;14.35;10.30;;;16.60;67.30;;;;;;5362979;26;110665;-51
2024/04/16 06:22:17;;;;;;;14.27;9.73;;;16.80;66.60;;;;;;5364009;26;110679;-51
2024/04/16 06:24:42;;;;;;;13.13;9.27;;;16.80;66.80;;;;;;5364895;26;110610;-50
2024/04/16 06:27:08;;;;;;;15.32;9.00;;;16.90;66.10;;;;;;5363810;26;111160;-50
2024/04/16 06:29:37;;;;;;;16.65;9.70;;;17.00;65.70;;;;;;5363957;26;110837;-50
2024/04/16 06:32:04;;;;;;;13.85;9.23;;;16.80;65.90;;;;;;5364189;26;110523;-50
2024/04/16 06:34:30;;;;;;;12.45;9.23;;;16.60;66.50;;;;;;5364528;26;111154;-50
2024/04/16 06:36:56;;;;;;;21.13;9.52;;;16.70;67.10;;;;;;5363167;26;111065;-50
2024/04/16 06:39:22;;;;;;;13.38;9.50;;;16.80;67.00;;;;;;5363321;26;111670;-50
2024/04/16 06:41:47;;;;;;;14.77;9.10;;;16.80;66.60;;;;;;5363981;26;110778;-50
2024/04/16 06:44:13;;;;;;;13.00;9.50;;;16.90;66.50;;;;;;5364309;26;110917;-50
2024/04/16 06:46:40;;;;;;;16.70;9.32;;;16.90;66.20;;;;;;5363338;26;111319;-50
2024/04/16 06:49:06;;;;;;;13.70;10.02;;;17.00;66.40;;;;;;5363094;26;110510;-50
2024/04/16 06:51:31;;;;;;;19.83;9.27;;;17.10;65.40;;;;;;5364060;26;110407;-50
2024/04/16 06:53:57;;;;;;;12.27;9.32;;;17.30;65.50;;;;;;5364666;26;110737;-50
2024/04/16 06:56:23;;;;;;;13.90;9.93;;;17.40;65.20;;;;;;5363145;26;111195;-50
2024/04/16 06:58:48;;;;;;;11.48;9.60;;;17.70;64.70;;;;;;5362876;26;111541;-50
2024/04/16 07:01:14;;;;;;;15.98;10.15;;;17.80;64.00;;;;;;5363194;26;110415;-50
2024/04/16 07:03:40;;;;;;;14.60;9.93;;;17.90;64.10;;;;;;5363911;26;110574;-50
2024/04/16 07:06:05;;;;;;;20.83;9.65;;;17.90;63.70;;;;;;5363469;26;111066;-50
2024/04/16 07:08:31;;;;;;;12.27;9.88;;;18.10;63.00;;;;;;5363079;26;110515;-50
2024/04/16 07:10:57;;;;;;;18.80;10.00;;;17.90;63.10;;;;;;5364105;26;110820;-50
2024/04/16 07:13:23;;;;;;;12.85;10.48;;;18.20;62.40;;;;;;5363648;26;110660;-50
2024/04/16 07:15:50;;;;;;;16.55;10.05;;;18.20;62.30;;;;;;5362657;26;112762;-50
2024/04/16 07:18:15;;;;;;;18.20;10.43;;;18.30;62.70;;;;;;5362353;26;111625;-50
2024/04/16 07:20:48;;;;;;;13.55;10.75;;;18.20;63.10;;;;;;5362997;26;110647;-50
2024/04/16 07:23:13;;;;;;;;;;;18.30;63.30;;;;;;5363970;26;110560;-50
2024/04/16 07:25:43;;;;;;;18.23;10.18;;;18.30;62.90;;;;;;5364047;26;112413;-50
2024/04/16 07:28:09;;;;;;;18.58;11.23;;;18.20;63.80;;;;;;5362228;26;110464;-50
2024/04/16 07:30:35;;;;;;;15.45;9.77;;;18.20;63.40;;;;;;5362871;26;110534;-50
2024/04/16 07:33:01;;;;;;;13.88;10.23;;;18.40;63.30;;;;;;5363775;26;110680;-50
2024/04/16 07:35:27;;;;;;;18.30;10.18;;;18.60;63.00;;;;;;5361762;26;112399;-50
2024/04/16 07:37:53;;;;;;;14.07;10.25;;;18.60;63.10;;;;;;5361958;26;111827;-50
2024/04/16 07:40:18;;;;;;;13.82;10.20;;;18.70;61.50;;;;;;5362988;26;110707;-50
2024/04/16 07:42:44;;;;;;;15.82;11.00;;;18.70;62.40;;;;;;5362840;26;110540;-50
2024/04/16 07:45:10;;;;;;;12.93;11.35;;;18.80;62.00;;;;;;5361871;26;111093;-50
2024/04/16 07:47:35;;;;;;;17.05;11.50;;;18.80;61.50;;;;;;5361390;26;111781;-50
2024/04/16 07:50:01;;;;;;;17.88;10.63;;;18.80;61.60;;;;;;5362661;26;110951;-50
2024/04/16 07:52:27;;;;;;;15.32;10.48;;;19.10;61.60;;;;;;5363294;26;110833;-50
2024/04/16 07:54:53;;;;;;;16.75;10.65;;;19.60;60.40;;;;;;5361584;26;111175;-50
2024/04/16 07:57:18;;;;;;;20.95;11.10;;;19.90;59.50;;;;;;5361577;26;111178;-50
2024/04/16 07:59:44;;;;;;;17.20;11.02;;;20.00;59.30;;;;;;5362207;26;110747;-50
2024/04/16 08:02:09;;;;;;;19.40;11.40;;;19.80;59.40;;;;;;5362440;26;110938;-51
2024/04/16 08:04:35;;;;;;;20.25;11.75;;;19.80;59.30;;;;;;5361768;26;111572;-50
2024/04/16 08:07:01;;;;;;;15.85;11.20;;;19.70;60.40;;;;;;5361120;26;111862;-50
2024/04/16 08:09:26;;;;;;;17.73;11.20;;;19.70;60.70;;;;;;5362190;26;110623;-51
2024/04/16 08:11:52;;;;;;;18.05;11.77;;;19.70;60.10;;;;;;5362115;26;111038;-52
2024/04/16 08:14:20;;;;;;;18.30;10.90;;;19.90;59.90;;;;;;5363131;26;112317;-51
2024/04/16 08:16:46;;;;;;;14.43;10.93;;;20.50;59.40;;;;;;5364717;26;111789;-51
2024/04/16 08:19:11;;;;;;;14.07;10.77;;;20.10;59.30;;;;;;5365556;26;113611;-51
2024/04/16 08:21:37;;;;;;;14.27;10.55;;;20.10;59.90;;;;;;5365670;26;110747;-51
2024/04/16 08:24:03;;;;;;;18.08;11.25;;;19.90;60.50;;;;;;5364403;26;111247;-53
2024/04/16 08:26:29;;;;;;;15.35;11.07;;;20.20;59.30;;;;;;5364551;26;111694;-51
2024/04/16 08:28:55;;;;;;;12.75;10.90;;;20.50;59.30;;;;;;5365437;26;111184;-50
2024/04/16 08:31:20;;;;;;;21.30;10.40;;;20.40;59.50;;;;;;5365721;26;110546;-51
2024/04/16 08:33:46;;;;;;;16.92;11.50;;;20.30;59.70;;;;;;5364238;26;111108;-50
2024/04/16 08:36:11;;;;;;;15.98;10.95;;;20.30;59.40;;;;;;5364448;26;113532;-50
2024/04/16 08:38:37;;;;;;;16.15;10.45;;;20.30;59.50;;;;;;5393320;26;110930;-51
2024/04/16 08:41:03;;;;;;;14.32;9.73;;;21.00;58.40;;;;;;5365301;26;110620;-50
2024/04/16 08:43:33;;;;;;;15.90;10.77;;;21.40;57.30;;;;;;5365418;26;111500;-50
2024/04/16 08:46:01;;;;;;;16.13;10.93;;;21.20;57.30;;;;;;5364376;26;111484;-51
2024/04/16 08:48:29;;;;;;;17.05;10.68;;;21.10;57.20;;;;;;5365574;26;110403;-50
2024/04/16 08:50:57;;;;;;;23.83;11.20;;;21.50;56.50;;;;;;5365316;26;110606;-50
2024/04/16 08:53:24;;;;;;;17.52;11.77;;;21.30;57.20;;;;;;5364923;26;112845;-50
2024/04/16 08:55:50;;;;;;;15.32;11.50;;;20.90;57.30;;;;;;5364056;26;111391;-49
2024/04/16 08:58:16;;;;;;;18.02;12.30;;;20.70;57.70;;;;;;5365194;26;110731;-50
2024/04/16 09:00:43;;;;;;;15.30;11.63;;;20.70;58.10;;;;;;5365206;26;110681;-49
2024/04/16 09:03:09;;;;;;;22.63;12.45;;;20.70;57.80;;;;;;5363941;26;111260;-50
2024/04/16 09:05:35;;;;;;;16.70;11.40;;;20.80;58.80;;;;;;5364199;26;111899;-50
2024/04/16 09:08:00;;;;;;;15.38;11.90;;;21.10;56.90;;;;;;5365110;26;110852;-49
2024/04/16 09:10:26;;;;;;;18.50;11.25;;;21.40;56.40;;;;;;5365133;26;110501;-49
2024/04/16 09:12:53;;;;;;;13.65;10.73;;;21.90;55.00;;;;;;5364131;26;111173;-50
2024/04/16 09:15:20;;;;;;;19.65;11.00;;;22.30;54.30;;;;;;5363867;26;110512;-49
2024/04/16 09:17:50;;;;;;;17.10;11.25;;;22.30;54.40;;;;;;5365154;26;110713;-50
2024/04/16 09:20:19;;;;;;;16.92;10.73;;;22.60;53.20;;;;;;5364803;26;110565;-49
2024/04/16 09:22:49;;;;;;;19.98;11.38;;;22.30;53.60;;;;;;5364093;26;112457;-50
2024/04/16 09:25:19;;;;;;;24.02;10.63;;;22.60;52.90;;;;;;5363082;26;111066;-50
2024/04/16 09:27:49;;;;;;;20.70;11.57;;;22.40;54.50;;;;;;5364965;26;110380;-50
2024/04/16 09:30:16;;;;;;;15.85;10.38;;;22.60;54.00;;;;;;5364987;26;110715;-50
2024/04/16 09:33:05;;;;;;;18.38;11.40;;;23.40;52.00;;;;;;5363849;26;112015;-50
2024/04/16 09:35:32;;;;;;;17.40;12.63;;;23.40;51.40;;;;;;5353950;26;111945;-50
2024/04/16 09:38:03;;;;;;;23.52;11.60;;;23.00;52.00;;;;;;5364766;26;110569;-50
2024/04/16 09:40:30;;;;;;;17.38;12.40;;;22.90;53.10;;;;;;5364861;26;110589;-49
2024/04/16 09:42:59;;;;;;;18.42;11.23;;;22.60;53.50;;;;;;5364000;26;112441;-50
2024/04/16 09:45:25;;;;;;;15.32;9.98;;;22.90;53.10;;;;;;5363851;26;112257;-50
2024/04/16 09:47:53;;;;;;;17.27;11.43;;;23.70;51.90;;;;;;5364677;26;113353;-50
2024/04/16 09:50:20;;;;;;;18.23;11.93;;;23.60;51.20;;;;;;5364782;26;110706;-50
2024/04/16 09:52:56;;;;;;;16.95;11.02;;;23.10;51.70;;;;;;5363969;26;111045;-50
2024/04/16 09:55:23;;;;;;;19.50;11.02;;;23.30;52.20;;;;;;5363854;26;110346;-50
2024/04/16 09:57:50;;;;;;;18.25;11.05;;;24.00;50.90;;;;;;5364229;26;110553;-50
2024/04/16 10:00:16;;;;;;;19.98;11.90;;;24.40;49.50;;;;;;5364878;26;110569;-50
2024/04/16 10:02:46;;;;;;;19.83;10.95;;;24.30;49.10;;;;;;5363510;26;111031;-50
2024/04/16 10:05:15;;;;;;;15.38;11.52;;;24.10;51.10;;;;;;5363684;26;112011;-50
2024/04/16 10:07:44;;;;;;;18.35;10.95;;;24.10;50.60;;;;;;5364806;26;110810;-50
2024/04/16 10:10:10;;;;;;;19.33;11.77;;;24.60;49.20;;;;;;5364500;26;110657;-50
2024/04/16 10:12:40;;;;;;;19.73;10.88;;;24.20;49.70;;;;;;5363439;26;113430;-50
2024/04/16 10:15:12;;;;;;;22.67;11.65;;;24.40;49.00;;;;;;5363054;26;111588;-50
2024/04/16 10:17:51;;;;;;;26.77;11.48;;;24.00;49.20;;;;;;5364582;26;111210;-50
2024/04/16 10:20:17;;;;;;;15.18;11.57;;;24.00;50.10;;;;;;5364349;26;110714;-49
2024/04/16 10:22:51;;;;;;;15.45;10.02;;;23.40;50.60;;;;;;5363325;26;112388;-49
2024/04/16 10:25:27;;;;;;;18.73;11.52;;;22.90;52.10;;;;;;5361455;26;111534;-49
2024/04/16 10:27:53;;;;;;;15.07;10.48;;;23.30;51.50;;;;;;5364358;26;110637;-49
2024/04/16 10:30:18;;;;;;;20.38;10.95;;;25.60;47.70;;;;;;5364385;26;111103;-49
2024/04/16 10:32:46;;;;;;;18.17;12.10;;;23.90;50.30;;;;;;5363482;26;111866;-49
2024/04/16 10:35:13;;;;;;;21.55;13.70;;;23.40;50.90;;;;;;5363224;26;111888;-49
2024/04/16 10:37:38;;;;;;;19.15;13.10;;;22.80;52.10;;;;;;5362577;26;110774;-51
2024/04/16 10:40:05;;;;;;;23.38;13.90;;;22.70;53.80;;;;;;5364168;26;110887;-51
2024/04/16 10:42:36;;;;;;;17.75;12.50;;;22.90;53.10;;;;;;5362922;26;112329;-48
2024/04/16 10:45:03;;;;;;;23.40;13.75;;;23.00;52.60;;;;;;5363417;26;113452;-48
2024/04/16 10:47:31;;;;;;;19.80;13.57;;;22.80;52.60;;;;;;5363809;26;110773;-52
2024/04/16 10:49:58;;;;;;;17.48;13.38;;;22.60;53.80;;;;;;5364164;26;110683;-51
2024/04/16 10:52:23;;;;;;;20.88;12.90;;;22.30;54.50;;;;;;5362589;26;112365;-50
2024/04/16 10:54:52;;;;;;;20.05;13.30;;;23.90;51.20;;;;;;5363500;26;111268;-51
2024/04/16 10:57:20;;;;;;;19.88;12.80;;;23.80;49.80;;;;;;5364242;26;110642;-51
2024/04/16 10:59:46;;;;;;;20.02;13.15;;;23.50;51.10;;;;;;5363903;26;110627;-51
2024/04/16 11:02:12;;;;;;;18.70;12.77;;;23.60;50.50;;;;;;5362609;26;110988;-49
2024/04/16 11:04:38;;;;;;;19.58;13.65;;;24.70;48.70;;;;;;5362551;26;110557;-48
2024/04/16 11:07:04;;;;;;;17.90;14.30;;;24.50;48.80;;;;;;5363522;26;110569;-51
2024/04/16 11:09:30;;;;;;;18.80;14.02;;;23.70;50.70;;;;;;5363989;26;110605;-51
2024/04/16 11:11:56;;;;;;;24.83;14.40;;;23.90;51.10;;;;;;5362382;26;112467;-48
2024/04/16 11:14:23;;;;;;;17.90;12.68;;;25.40;47.60;;;;;;5362550;26;111631;-51
2024/04/16 11:16:49;;;;;;;16.70;13.10;;;25.60;47.90;;;;;;5391325;26;110704;-48
2024/04/16 11:19:17;;;;;;;19.23;12.40;;;25.60;46.90;;;;;;5363568;26;110535;-49
2024/04/16 11:21:43;;;;;;;22.17;13.25;;;25.90;46.30;;;;;;5362834;26;112509;-49
2024/04/16 11:24:09;;;;;;;19.75;13.38;;;24.50;48.40;;;;;;5362072;26;111662;-49
2024/04/16 11:26:37;;;;;;;16.20;11.35;;;25.10;47.80;;;;;;5363403;26;110647;-49
2024/04/16 11:29:03;;;;;;;17.98;11.70;;;25.20;46.10;;;;;;5362846;26;110704;-49
2024/04/16 11:31:29;;;;;;;16.80;10.55;;;24.30;48.20;;;;;;5362314;26;111094;-49
2024/04/16 11:33:55;;;;;;;19.83;10.30;;;25.90;46.70;;;;;;5360339;26;111364;-49
2024/04/16 11:36:21;;;;;;;12.32;9.68;;;26.60;45.70;;;;;;5363028;26;110591;-49
2024/04/16 11:38:48;;;;;;;16.13;9.90;;;25.70;45.90;;;;;;5363566;26;110768;-49
2024/04/16 11:41:17;;;;;;;15.63;8.32;;;24.70;47.70;;;;;;5362765;26;113554;-49
2024/04/16 11:43:45;;;;;;;16.08;8.88;;;25.60;47.00;;;;;;5362769;26;111655;-49
2024/04/16 11:46:14;;;;;;;15.48;8.52;;;25.70;46.10;;;;;;5363359;26;110520;-49
2024/04/16 11:48:43;;;;;;;18.70;8.63;;;25.90;46.70;;;;;;5365997;26;110659;-49
2024/04/16 11:51:10;;;;;;;21.20;8.80;;;25.40;48.10;;;;;;5365468;26;111505;-49
2024/04/16 11:53:37;;;;;;;13.63;8.00;;;25.40;46.40;;;;;;5365753;26;110360;-49
2024/04/16 11:56:03;;;;;;;14.23;9.25;;;25.60;46.60;;;;;;5366699;26;110875;-49
2024/04/16 11:58:29;;;;;;;13.23;7.85;;;26.60;44.70;;;;;;5366641;26;110611;-49
2024/04/16 12:00:55;;;;;;;14.40;8.55;;;27.30;44.50;;;;;;5365333;26;112385;-49
2024/04/16 12:03:20;;;;;;;13.10;9.18;;;26.90;44.70;;;;;;5365451;26;111120;-49
2024/04/16 12:05:46;;;;;;;17.63;9.45;;;26.80;44.10;;;;;;5366554;26;110446;-49
2024/04/16 12:08:12;;;;;;;16.30;9.10;;;26.90;43.80;;;;;;5366524;26;110640;-49
2024/04/16 12:10:38;;;;;;;18.05;8.38;;;26.00;45.80;;;;;;5365667;26;112409;-49
2024/04/16 12:13:04;;;;;;;16.58;9.93;;;25.90;46.20;;;;;;5363511;26;111624;-49
2024/04/16 12:15:30;;;;;;;12.77;9.38;;;24.60;47.70;;;;;;5366296;26;110761;-49
2024/04/16 12:17:56;;;;;;;14.88;9.65;;;24.70;47.80;;;;;;5366204;26;110707;-49
2024/04/16 12:20:22;;;;;;;13.93;8.77;;;25.60;45.80;;;;;;5365107;26;112408;-49